Time;durP1;ratioP1;P1;durP2;ratioP2;P2;SDS_P1;SDS_P2;PMS_P1;PMS_P2;Temp;Humidity;BMP_temperature;BMP_pressure;BME280_temperature;BME280_humidity;BME280_pressure;Samples;Min_cycle;Max_cycle;Signal;HPM_P1;HPM_P2
2022/10/28 00:02:15;;;;;;;2.17;1.70;;;15.90;99.90;;;;;;5034116;28;20221;-61
2022/10/28 00:04:42;;;;;;;2.43;1.60;;;15.90;99.90;;;;;;5034473;28;20250;-61
2022/10/28 00:07:11;;;;;;;1.83;1.57;;;15.90;99.90;;;;;;5034395;28;20698;-63
2022/10/28 00:09:43;;;;;;;1.40;1.30;;;15.90;99.90;;;;;;5034397;28;20216;-61
2022/10/28 00:12:10;;;;;;;1.33;1.20;;;15.90;99.90;;;;;;5033969;28;20513;-61
2022/10/28 00:14:40;;;;;;;2.27;1.50;;;15.90;99.90;;;;;;5039020;28;20314;-61
2022/10/28 00:17:07;;;;;;;1.50;1.40;;;15.90;99.90;;;;;;5035905;28;20240;-62
2022/10/28 00:19:38;;;;;;;1.73;1.37;;;15.90;99.90;;;;;;5034246;28;20288;-61
2022/10/28 00:22:05;;;;;;;1.37;1.27;;;15.90;99.90;;;;;;5032763;28;20204;-60
2022/10/28 00:24:34;;;;;;;1.40;1.30;;;16.00;99.90;;;;;;5034312;28;20235;-62
2022/10/28 00:27:01;;;;;;;1.87;1.47;;;16.00;99.90;;;;;;5033795;28;20228;-62
2022/10/28 00:29:33;;;;;;;1.50;1.40;;;16.00;99.90;;;;;;5031566;28;20210;-61
2022/10/28 00:32:00;;;;;;;1.10;1.10;;;15.90;99.90;;;;;;5033648;28;20221;-62
2022/10/28 00:34:27;;;;;;;1.87;1.30;;;16.00;99.90;;;;;;5034139;28;20690;-62
2022/10/28 00:36:55;;;;;;;1.43;1.33;;;15.90;99.90;;;;;;5034050;28;20203;-62
2022/10/28 00:39:24;;;;;;;1.67;1.40;;;15.90;99.90;;;;;;5034096;28;20204;-62
2022/10/28 00:41:53;;;;;;;2.57;1.43;;;16.00;99.90;;;;;;5037903;28;20204;-63
2022/10/28 00:44:58;;;;;;;1.60;1.50;;;16.00;99.90;;;;;;5034182;28;20230;-61
2022/10/28 00:47:50;;;;;;;1.60;1.40;;;16.00;99.90;;;;;;5026879;28;20319;-62
2022/10/28 00:50:28;;;;;;;1.27;1.17;;;16.00;99.90;;;;;;5039443;28;20200;-63
2022/10/28 00:53:00;;;;;;;1.40;1.30;;;16.00;99.90;;;;;;5032773;28;20242;-62
2022/10/28 00:55:27;;;;;;;1.10;1.10;;;16.00;99.90;;;;;;5033519;28;20211;-63
2022/10/28 00:57:55;;;;;;;1.47;1.37;;;15.90;99.90;;;;;;5033681;28;20200;-61
2022/10/28 01:00:23;;;;;;;1.13;1.13;;;16.00;99.90;;;;;;5033728;28;20267;-62
2022/10/28 01:02:50;;;;;;;2.43;1.40;;;15.90;99.90;;;;;;5033222;28;20251;-62
2022/10/28 01:05:21;;;;;;;1.60;1.50;;;16.00;99.90;;;;;;5033250;28;20203;-62
2022/10/28 01:07:49;;;;;;;1.40;1.23;;;15.90;99.90;;;;;;5033415;28;20221;-63
2022/10/28 01:10:18;;;;;;;1.43;1.30;;;16.00;99.90;;;;;;5033353;28;20204;-62
2022/10/28 01:12:58;;;;;;;1.30;1.20;;;15.90;99.90;;;;;;5032552;28;20865;-62
2022/10/28 01:15:37;;;;;;;2.17;1.30;;;15.90;99.90;;;;;;5033540;28;20209;-63
2022/10/28 01:18:14;;;;;;;1.47;1.37;;;15.80;99.90;;;;;;5033268;28;20209;-62
2022/10/28 01:21:17;;;;;;;1.70;1.47;;;15.90;99.90;;;;;;5033366;28;20594;-63
2022/10/28 01:23:59;;;;;;;1.50;1.40;;;15.90;99.90;;;;;;5028042;28;20231;-64
2022/10/28 01:27:10;;;;;;;1.27;1.10;;;15.90;99.90;;;;;;5028365;28;20595;-63
2022/10/28 01:30:03;;;;;;;1.30;1.20;;;15.90;99.90;;;;;;4995552;28;20694;-62
2022/10/28 01:32:40;;;;;;;1.47;1.37;;;15.90;99.90;;;;;;5026730;28;20204;-60
2022/10/28 01:35:16;;;;;;;1.40;1.30;;;15.90;99.90;;;;;;5033237;28;20678;-63
2022/10/28 01:37:49;;;;;;;1.43;1.27;;;15.90;99.90;;;;;;5033537;28;20726;-63
2022/10/28 01:40:22;;;;;;;1.20;1.10;;;16.00;99.90;;;;;;5029313;28;20200;-61
2022/10/28 01:42:55;;;;;;;2.23;1.53;;;15.90;99.90;;;;;;5032497;28;20252;-62
2022/10/28 01:45:26;;;;;;;2.00;1.50;;;15.90;99.90;;;;;;5028864;28;20210;-62
2022/10/28 01:48:00;;;;;;;1.13;1.03;;;16.00;99.90;;;;;;5032953;28;20224;-62
2022/10/28 01:50:32;;;;;;;1.83;1.40;;;16.00;99.90;;;;;;5033041;28;20197;-63
2022/10/28 01:53:06;;;;;;;2.00;1.47;;;16.10;99.90;;;;;;5031941;28;20721;-62
2022/10/28 01:55:37;;;;;;;1.30;1.10;;;16.10;99.90;;;;;;5032415;28;20212;-62
2022/10/28 01:58:06;;;;;;;1.33;1.10;;;16.20;99.90;;;;;;5028122;28;20205;-63
2022/10/28 02:00:35;;;;;;;1.67;1.40;;;16.20;99.90;;;;;;5032494;28;20223;-63
2022/10/28 02:03:06;;;;;;;1.40;1.30;;;16.30;99.90;;;;;;5031702;28;20225;-63
2022/10/28 02:05:44;;;;;;;2.50;1.20;;;16.20;99.90;;;;;;5032370;28;20204;-62
2022/10/28 02:08:37;;;;;;;2.00;1.30;;;16.20;99.90;;;;;;5031624;28;20590;-63
2022/10/28 02:11:21;;;;;;;1.40;1.30;;;16.20;99.90;;;;;;5032463;28;20252;-62
2022/10/28 02:13:58;;;;;;;1.20;1.10;;;16.10;99.90;;;;;;5031281;28;20234;-62
2022/10/28 02:16:31;;;;;;;1.30;1.20;;;16.00;99.90;;;;;;5030938;28;20203;-62
2022/10/28 02:19:07;;;;;;;1.10;1.10;;;16.10;99.90;;;;;;5032543;28;20232;-62
2022/10/28 02:21:44;;;;;;;1.40;1.23;;;16.10;99.90;;;;;;5031907;28;20214;-62
2022/10/28 02:24:19;;;;;;;1.63;1.40;;;16.10;99.90;;;;;;5036147;28;20247;-62
2022/10/28 02:26:52;;;;;;;1.80;1.27;;;16.00;99.90;;;;;;5028750;28;20227;-62
2022/10/28 02:29:28;;;;;;;1.57;1.30;;;16.10;99.90;;;;;;5033000;28;20557;-61
2022/10/28 02:31:59;;;;;;;1.87;1.30;;;16.00;99.90;;;;;;5028516;28;20210;-61
2022/10/28 02:34:31;;;;;;;1.77;1.50;;;16.10;99.90;;;;;;5031279;28;20224;-62
2022/10/28 02:37:01;;;;;;;3.37;1.53;;;16.10;99.90;;;;;;5028874;28;20246;-63
2022/10/28 02:39:34;;;;;;;1.90;1.40;;;16.00;99.90;;;;;;5031246;28;20201;-63
2022/10/28 02:42:06;;;;;;;2.23;1.37;;;16.00;99.90;;;;;;5032387;28;20572;-63
2022/10/28 02:44:39;;;;;;;1.53;1.30;;;16.00;99.90;;;;;;5031538;28;20216;-62
2022/10/28 02:47:11;;;;;;;1.20;1.10;;;16.00;99.90;;;;;;5031714;28;20788;-63
2022/10/28 02:49:43;;;;;;;1.30;1.20;;;15.90;99.90;;;;;;5031701;28;20209;-63
2022/10/28 02:52:10;;;;;;;1.17;1.10;;;15.90;99.90;;;;;;5031003;28;20234;-63
2022/10/28 02:54:42;;;;;;;1.57;1.47;;;15.90;99.90;;;;;;5031693;28;20220;-62
2022/10/28 02:57:13;;;;;;;1.43;1.30;;;15.90;99.90;;;;;;5031948;28;20203;-61
2022/10/28 02:59:40;;;;;;;3.50;1.83;;;15.90;99.90;;;;;;5032412;28;20213;-63
2022/10/28 03:02:07;;;;;;;1.73;1.63;;;15.90;99.90;;;;;;5031201;28;20208;-62
2022/10/28 03:04:34;;;;;;;1.30;1.20;;;15.90;99.90;;;;;;5032111;28;20225;-62
2022/10/28 03:07:02;;;;;;;1.73;1.27;;;15.90;99.90;;;;;;5031930;28;20707;-62
2022/10/28 03:09:29;;;;;;;2.10;1.50;;;15.90;99.90;;;;;;5031703;28;20197;-61
2022/10/28 03:11:56;;;;;;;1.43;1.33;;;15.90;99.90;;;;;;5031043;28;20207;-61
2022/10/28 03:14:23;;;;;;;1.57;1.47;;;15.80;99.90;;;;;;5031784;28;20314;-61
2022/10/28 03:16:50;;;;;;;1.30;1.20;;;15.90;99.90;;;;;;5031754;28;20655;-62
2022/10/28 03:19:16;;;;;;;1.80;1.33;;;16.00;99.90;;;;;;5026054;28;20209;-62
2022/10/28 03:21:43;;;;;;;2.17;1.70;;;16.10;99.90;;;;;;5031815;28;20200;-61
2022/10/28 03:24:11;;;;;;;1.50;1.40;;;16.20;99.90;;;;;;5030941;28;20826;-61
2022/10/28 03:26:38;;;;;;;1.47;1.37;;;16.20;99.90;;;;;;5031757;28;20723;-61
2022/10/28 03:29:05;;;;;;;1.53;1.43;;;16.40;99.90;;;;;;5031941;28;20616;-63
2022/10/28 03:31:32;;;;;;;1.50;1.40;;;16.40;99.90;;;;;;5032577;28;20228;-61
2022/10/28 03:33:59;;;;;;;1.53;1.40;;;16.30;99.90;;;;;;5030823;28;20224;-62
2022/10/28 03:36:26;;;;;;;1.63;1.53;;;16.40;99.90;;;;;;5030581;23;20456;-66
2022/10/28 03:38:52;;;;;;;1.63;1.50;;;16.40;99.90;;;;;;4996138;28;20292;-65
2022/10/28 03:41:21;;;;;;;1.60;1.50;;;16.40;99.90;;;;;;4998042;28;20209;-67
2022/10/28 03:43:48;;;;;;;1.63;1.40;;;16.50;99.90;;;;;;4998912;28;20233;-67
2022/10/28 03:46:15;;;;;;;1.70;1.30;;;16.50;99.90;;;;;;5007911;28;20288;-67
2022/10/28 03:48:42;;;;;;;1.57;1.30;;;16.40;99.90;;;;;;5017761;28;20320;-67
2022/10/28 03:51:08;;;;;;;1.47;1.37;;;16.40;99.90;;;;;;5019217;28;20288;-65
2022/10/28 03:53:35;;;;;;;1.40;1.30;;;16.40;99.90;;;;;;5017745;28;20685;-67
2022/10/28 03:56:02;;;;;;;1.37;1.23;;;16.50;99.90;;;;;;5022598;28;20316;-66
2022/10/28 03:58:31;;;;;;;1.93;1.50;;;16.30;99.90;;;;;;5024889;28;20655;-66
2022/10/28 04:00:57;;;;;;;1.70;1.50;;;16.40;99.90;;;;;;5019362;28;20300;-67
2022/10/28 04:03:25;;;;;;;1.93;1.30;;;16.50;99.90;;;;;;5019054;28;20288;-66
2022/10/28 04:05:52;;;;;;;1.60;1.50;;;16.50;99.90;;;;;;5017033;28;20260;-67
2022/10/28 04:08:20;;;;;;;2.17;1.50;;;16.40;99.90;;;;;;5017096;28;20293;-66
2022/10/28 04:10:47;;;;;;;1.67;1.50;;;16.30;99.90;;;;;;5018116;28;20204;-67
2022/10/28 04:13:14;;;;;;;1.90;1.47;;;16.30;99.90;;;;;;5024429;28;20205;-66
2022/10/28 04:15:43;;;;;;;1.73;1.63;;;16.30;99.90;;;;;;5022549;28;20219;-68
2022/10/28 04:18:10;;;;;;;2.20;1.73;;;16.30;99.90;;;;;;5019361;28;20209;-66
2022/10/28 04:20:36;;;;;;;1.70;1.30;;;16.30;99.90;;;;;;5014613;28;20205;-67
2022/10/28 04:23:03;;;;;;;2.67;1.50;;;16.30;99.90;;;;;;5014366;28;20223;-67
2022/10/28 04:25:30;;;;;;;2.10;1.30;;;16.30;99.90;;;;;;5015011;28;20229;-66
2022/10/28 04:27:57;;;;;;;2.60;1.50;;;16.30;99.90;;;;;;5014644;28;20225;-67
2022/10/28 04:30:24;;;;;;;1.60;1.33;;;16.40;99.90;;;;;;5015099;28;20201;-66
2022/10/28 04:32:52;;;;;;;2.10;1.50;;;16.40;99.90;;;;;;5014020;28;20729;-67
2022/10/28 04:35:19;;;;;;;1.50;1.40;;;16.40;99.90;;;;;;5010276;28;20210;-66
2022/10/28 04:37:46;;;;;;;1.40;1.30;;;16.60;99.90;;;;;;5011040;28;20636;-67
2022/10/28 04:40:13;;;;;;;1.83;1.47;;;16.40;99.90;;;;;;5011366;28;20205;-67
2022/10/28 04:42:40;;;;;;;1.60;1.50;;;16.50;99.90;;;;;;5007742;28;20212;-66
2022/10/28 04:45:08;;;;;;;1.10;1.10;;;16.50;99.90;;;;;;5003821;28;20201;-66
2022/10/28 04:47:34;;;;;;;1.97;1.73;;;16.50;99.90;;;;;;5005610;28;20699;-67
2022/10/28 04:50:03;;;;;;;3.63;1.57;;;16.60;99.90;;;;;;5004843;28;20641;-67
2022/10/28 04:52:30;;;;;;;1.53;1.30;;;16.60;99.90;;;;;;5015449;28;20212;-66
2022/10/28 04:54:56;;;;;;;2.07;1.60;;;16.60;99.90;;;;;;5016432;28;20205;-66
2022/10/28 04:57:23;;;;;;;1.67;1.53;;;16.60;99.90;;;;;;5015548;28;20217;-66
2022/10/28 04:59:50;;;;;;;1.40;1.30;;;16.60;99.90;;;;;;5014606;28;20208;-67
2022/10/28 05:02:17;;;;;;;1.63;1.50;;;16.60;99.90;;;;;;5009530;28;20209;-66
2022/10/28 05:04:44;;;;;;;1.80;1.70;;;16.80;99.90;;;;;;5014400;28;20209;-66
2022/10/28 05:07:12;;;;;;;1.97;1.60;;;16.70;99.90;;;;;;5009939;28;20225;-66
2022/10/28 05:09:39;;;;;;;3.67;1.60;;;16.90;99.90;;;;;;5011476;28;20209;-67
2022/10/28 05:12:06;;;;;;;2.07;1.87;;;16.60;99.90;;;;;;5014377;28;20289;-68
2022/10/28 05:14:33;;;;;;;2.50;1.73;;;16.70;99.90;;;;;;5016838;28;20798;-65
2022/10/28 05:17:00;;;;;;;1.80;1.57;;;16.60;99.90;;;;;;5013972;28;20240;-67
2022/10/28 05:19:27;;;;;;;1.63;1.50;;;16.70;99.90;;;;;;5009744;28;20781;-66
2022/10/28 05:21:53;;;;;;;1.63;1.30;;;16.80;99.90;;;;;;5012545;28;20329;-67
2022/10/28 05:24:21;;;;;;;2.33;1.40;;;16.70;99.90;;;;;;5009652;28;20562;-67
2022/10/28 05:26:48;;;;;;;3.13;1.50;;;16.70;99.90;;;;;;5011546;28;20316;-66
2022/10/28 05:29:17;;;;;;;1.63;1.53;;;16.70;99.90;;;;;;5009752;28;20622;-66
2022/10/28 05:31:44;;;;;;;1.93;1.20;;;16.80;99.90;;;;;;5011913;28;20659;-68
2022/10/28 05:34:10;;;;;;;1.67;1.58;;;16.80;99.90;;;;;;5012703;28;20616;-67
2022/10/28 05:36:38;;;;;;;1.57;1.43;;;16.80;99.90;;;;;;5011313;28;20233;-66
2022/10/28 05:39:05;;;;;;;1.50;1.40;;;16.80;99.90;;;;;;5014070;28;20197;-66
2022/10/28 05:41:33;;;;;;;1.50;1.40;;;16.80;99.90;;;;;;5014121;28;20198;-67
2022/10/28 05:44:00;;;;;;;1.63;1.33;;;16.80;99.90;;;;;;5013384;28;20205;-67
2022/10/28 05:46:27;;;;;;;2.60;1.50;;;16.80;99.90;;;;;;5013793;28;20221;-65
2022/10/28 05:48:54;;;;;;;2.80;1.67;;;16.80;99.90;;;;;;5013322;28;20224;-67
2022/10/28 05:51:20;;;;;;;2.07;1.30;;;16.70;99.90;;;;;;5013377;28;20555;-66
2022/10/28 05:53:49;;;;;;;1.20;1.20;;;16.70;99.90;;;;;;5012940;28;20296;-66
2022/10/28 05:56:16;;;;;;;1.37;1.20;;;16.70;99.90;;;;;;5013290;28;20221;-66
2022/10/28 05:58:44;;;;;;;1.37;1.27;;;16.70;99.90;;;;;;5013746;28;20212;-67
2022/10/28 06:01:11;;;;;;;1.40;1.30;;;16.70;99.90;;;;;;5015051;28;20209;-67
2022/10/28 06:03:38;;;;;;;1.50;1.40;;;16.60;99.90;;;;;;5018979;28;20208;-65
2022/10/28 06:06:06;;;;;;;2.17;1.70;;;16.60;99.90;;;;;;5016210;28;20224;-66
2022/10/28 06:08:32;;;;;;;1.43;1.33;;;16.60;99.90;;;;;;5012590;28;20516;-66
2022/10/28 06:11:00;;;;;;;1.70;1.47;;;16.50;99.90;;;;;;5010547;28;20209;-66
2022/10/28 06:13:27;;;;;;;1.50;1.40;;;16.50;99.90;;;;;;5005086;28;20622;-67
2022/10/28 06:15:56;;;;;;;2.00;1.70;;;16.50;99.90;;;;;;5010098;28;20691;-66
2022/10/28 06:18:24;;;;;;;1.40;1.30;;;16.50;99.90;;;;;;5012800;28;20288;-67
2022/10/28 06:20:55;;;;;;;1.60;1.50;;;16.50;99.90;;;;;;5010814;28;20391;-65
2022/10/28 06:23:22;;;;;;;1.30;1.20;;;16.60;99.90;;;;;;5009643;28;20284;-66
2022/10/28 06:25:50;;;;;;;2.30;1.80;;;16.60;99.90;;;;;;5006198;28;20618;-67
2022/10/28 06:28:17;;;;;;;2.37;1.40;;;16.50;99.90;;;;;;5005716;28;20224;-68
2022/10/28 06:30:44;;;;;;;1.90;1.63;;;16.60;99.90;;;;;;5004461;28;20208;-67
2022/10/28 06:33:12;;;;;;;2.80;1.83;;;16.60;99.90;;;;;;5004227;28;20225;-67
2022/10/28 06:35:39;;;;;;;3.03;1.50;;;16.50;99.90;;;;;;5004243;28;20584;-67
2022/10/28 06:38:06;;;;;;;1.30;1.20;;;16.50;99.90;;;;;;5006089;28;20212;-67
2022/10/28 06:40:32;;;;;;;1.83;1.63;;;16.50;99.90;;;;;;5018077;28;20208;-68
2022/10/28 06:43:00;;;;;;;1.70;1.60;;;16.60;99.90;;;;;;5010979;28;20215;-67
2022/10/28 06:45:27;;;;;;;1.53;1.43;;;16.60;99.90;;;;;;5011157;28;20212;-67
2022/10/28 06:47:57;;;;;;;1.90;1.70;;;16.60;99.90;;;;;;5012243;28;20588;-68
2022/10/28 06:50:26;;;;;;;1.80;1.70;;;16.60;99.90;;;;;;5012394;28;20610;-67
2022/10/28 06:52:55;;;;;;;2.67;1.67;;;16.70;99.90;;;;;;5011699;28;20211;-67
2022/10/28 06:55:22;;;;;;;2.10;1.83;;;16.70;99.90;;;;;;5013868;28;20208;-66
2022/10/28 06:57:49;;;;;;;1.77;1.67;;;16.80;99.90;;;;;;5009811;28;20228;-67
2022/10/28 07:00:17;;;;;;;2.53;1.57;;;16.80;99.90;;;;;;5010136;28;20207;-66
2022/10/28 07:02:43;;;;;;;1.60;1.50;;;16.90;99.90;;;;;;5017560;28;20569;-68
2022/10/28 07:05:10;;;;;;;1.60;1.40;;;16.90;99.90;;;;;;5015860;28;20314;-67
2022/10/28 07:07:38;;;;;;;1.50;1.40;;;17.00;99.90;;;;;;5019350;28;20288;-66
2022/10/28 07:10:08;;;;;;;1.50;1.40;;;17.00;99.90;;;;;;5019603;28;20212;-68
2022/10/28 07:12:35;;;;;;;1.73;1.63;;;17.00;99.90;;;;;;5015998;28;20219;-66
2022/10/28 07:15:01;;;;;;;2.77;1.60;;;17.00;99.90;;;;;;5011218;28;20205;-67
2022/10/28 07:17:28;;;;;;;1.60;1.50;;;17.10;99.90;;;;;;5011083;28;20443;-66
2022/10/28 07:19:55;;;;;;;1.87;1.70;;;17.20;99.90;;;;;;5004457;28;20273;-67
2022/10/28 07:22:22;;;;;;;1.60;1.50;;;17.10;99.90;;;;;;5003977;28;20308;-67
2022/10/28 07:24:50;;;;;;;2.13;1.53;;;17.20;99.90;;;;;;4999487;28;20206;-66
2022/10/28 07:27:17;;;;;;;1.90;1.50;;;17.30;99.90;;;;;;5009163;28;20228;-66
2022/10/28 07:29:44;;;;;;;1.97;1.73;;;17.30;99.90;;;;;;5004984;28;20217;-67
2022/10/28 07:32:10;;;;;;;1.70;1.60;;;17.30;99.90;;;;;;5013176;28;20201;-66
2022/10/28 07:34:37;;;;;;;2.20;1.70;;;17.20;99.90;;;;;;5016015;28;20690;-67
2022/10/28 07:37:04;;;;;;;1.90;1.80;;;17.30;99.90;;;;;;5014642;28;20229;-66
2022/10/28 07:39:31;;;;;;;1.80;1.70;;;17.20;99.90;;;;;;5012770;28;20198;-68
2022/10/28 07:42:00;;;;;;;2.40;2.10;;;17.20;99.90;;;;;;5014262;28;20656;-67
2022/10/28 07:44:27;;;;;;;1.73;1.63;;;17.30;99.90;;;;;;5011837;28;20205;-67
2022/10/28 07:46:54;;;;;;;2.10;1.90;;;17.30;99.90;;;;;;5010559;28;20228;-67
2022/10/28 07:49:20;;;;;;;2.27;1.67;;;17.40;99.90;;;;;;5009079;28;20217;-66
2022/10/28 07:51:49;;;;;;;2.73;1.90;;;17.40;99.90;;;;;;5015020;28;20207;-66
2022/10/28 07:54:16;;;;;;;3.47;2.00;;;17.60;99.90;;;;;;5002258;28;20269;-65
2022/10/28 07:56:43;;;;;;;1.67;1.57;;;17.60;99.90;;;;;;5017062;28;20228;-66
2022/10/28 07:59:11;;;;;;;1.60;1.50;;;17.70;99.90;;;;;;5015608;28;20209;-66
2022/10/28 08:01:38;;;;;;;1.87;1.70;;;17.80;99.90;;;;;;5015783;28;20216;-67
2022/10/28 08:04:05;;;;;;;1.67;1.57;;;17.90;99.90;;;;;;5010443;28;20202;-65
2022/10/28 08:06:35;;;;;;;2.33;1.60;;;17.90;99.90;;;;;;5011052;28;20225;-69
2022/10/28 08:09:02;;;;;;;1.70;1.60;;;18.10;99.90;;;;;;5009480;28;20234;-67
2022/10/28 08:11:29;;;;;;;2.17;1.80;;;18.10;99.90;;;;;;5015052;28;20574;-67
2022/10/28 08:13:56;;;;;;;1.97;1.87;;;18.20;99.90;;;;;;5017236;28;20208;-70
2022/10/28 08:16:26;;;;;;;1.97;1.70;;;18.30;99.90;;;;;;5016852;28;20276;-66
2022/10/28 08:18:53;;;;;;;2.00;1.80;;;18.30;99.90;;;;;;5017928;28;20197;-67
2022/10/28 08:21:20;;;;;;;1.87;1.60;;;18.30;99.90;;;;;;5012616;28;20207;-66
2022/10/28 08:23:47;;;;;;;3.63;1.70;;;18.20;99.90;;;;;;5010702;28;20228;-66
2022/10/28 08:26:15;;;;;;;2.13;1.67;;;18.00;99.90;;;;;;5012453;28;20229;-67
2022/10/28 08:28:42;;;;;;;2.33;1.70;;;18.10;99.90;;;;;;5013781;28;20249;-67
2022/10/28 08:31:11;;;;;;;1.50;1.40;;;18.10;99.90;;;;;;5007453;28;20213;-68
2022/10/28 08:33:41;;;;;;;1.63;1.53;;;18.20;99.90;;;;;;5011465;28;20260;-68
2022/10/28 08:36:10;;;;;;;1.60;1.50;;;18.20;99.90;;;;;;5011843;28;20316;-65
2022/10/28 08:38:37;;;;;;;1.80;1.70;;;18.30;99.90;;;;;;5012068;28;20320;-68
2022/10/28 08:41:17;;;;;;;2.03;1.83;;;18.30;99.90;;;;;;5011951;28;20223;-67
2022/10/28 08:43:55;;;;;;;2.20;2.00;;;18.30;99.90;;;;;;5011365;28;20572;-67
2022/10/28 08:46:31;;;;;;;1.70;1.60;;;18.40;99.90;;;;;;5011336;28;20217;-67
2022/10/28 08:49:01;;;;;;;2.13;1.93;;;18.40;99.90;;;;;;5012688;28;20224;-66
2022/10/28 08:51:38;;;;;;;1.60;1.50;;;18.50;99.90;;;;;;5012854;28;20201;-67
2022/10/28 08:54:12;;;;;;;2.13;1.83;;;18.60;99.90;;;;;;5007690;28;20201;-67
2022/10/28 08:56:44;;;;;;;2.20;2.00;;;18.60;99.90;;;;;;5012732;28;20714;-66
2022/10/28 08:59:16;;;;;;;2.43;1.90;;;18.70;99.90;;;;;;5012562;28;20212;-67
2022/10/28 09:01:47;;;;;;;2.27;2.07;;;18.80;99.90;;;;;;5012594;28;20255;-67
2022/10/28 09:04:22;;;;;;;2.20;2.10;;;18.90;99.90;;;;;;5010474;28;20198;-66
2022/10/28 09:06:48;;;;;;;3.47;2.40;;;19.00;99.90;;;;;;5011990;28;20229;-66
2022/10/28 09:09:19;;;;;;;2.57;2.37;;;19.10;99.90;;;;;;5012489;28;20225;-67
2022/10/28 09:11:57;;;;;;;2.47;2.22;;;19.20;99.90;;;;;;5010612;28;20564;-67
2022/10/28 09:14:50;;;;;;;1.77;1.63;;;19.30;99.90;;;;;;5011711;28;20909;-65
2022/10/28 09:17:19;;;;;;;2.10;1.90;;;19.40;99.90;;;;;;4995765;28;20221;-67
2022/10/28 09:19:51;;;;;;;1.97;1.87;;;19.50;99.90;;;;;;5012660;28;20205;-66
2022/10/28 09:22:24;;;;;;;2.50;2.30;;;19.60;99.90;;;;;;5010873;28;20248;-67
2022/10/28 09:24:54;;;;;;;2.20;2.10;;;19.70;99.90;;;;;;5013497;28;20336;-65
2022/10/28 09:28:00;;;;;;;2.67;2.47;;;19.90;99.90;;;;;;5008255;28;20229;-66
2022/10/28 09:30:37;;;;;;;3.00;2.80;;;20.30;99.90;;;;;;4951646;28;20227;-65
2022/10/28 09:33:20;;;;;;;3.20;2.90;;;20.70;99.90;;;;;;4945397;28;20210;-66
2022/10/28 09:35:50;;;;;;;2.37;2.20;;;21.00;99.90;;;;;;4951940;28;20996;-66
2022/10/28 09:38:26;;;;;;;2.13;1.60;;;21.10;99.90;;;;;;4957269;29;20203;-67
2022/10/28 09:40:58;;;;;;;1.67;1.58;;;21.20;99.90;;;;;;4954228;29;20306;-65
2022/10/28 09:43:28;;;;;;;2.10;1.90;;;21.20;99.90;;;;;;4947820;28;20199;-66
2022/10/28 09:46:01;;;;;;;1.87;1.70;;;21.10;99.90;;;;;;4948572;28;20622;-65
2022/10/28 09:48:32;;;;;;;2.43;2.07;;;21.00;99.90;;;;;;4949818;28;20208;-68
2022/10/28 09:51:01;;;;;;;2.15;1.95;;;21.10;99.90;;;;;;4948619;28;20207;-67
2022/10/28 09:53:36;;;;;;;2.00;1.90;;;21.00;99.90;;;;;;4951501;28;20713;-69
2022/10/28 09:56:05;;;;;;;2.30;2.10;;;21.10;99.90;;;;;;4950783;28;20235;-66
2022/10/28 09:58:32;;;;;;;2.10;1.90;;;21.20;99.90;;;;;;4953627;29;20665;-68
2022/10/28 10:00:59;;;;;;;2.00;1.90;;;21.30;99.90;;;;;;4968898;28;20228;-66
2022/10/28 10:03:26;;;;;;;1.97;1.87;;;21.50;99.90;;;;;;5010642;28;20298;-68
2022/10/28 10:05:55;;;;;;;2.30;2.10;;;21.70;99.90;;;;;;5005215;28;20221;-65
2022/10/28 10:08:24;;;;;;;1.70;1.60;;;21.80;99.90;;;;;;5006594;28;20201;-68
2022/10/28 10:10:56;;;;;;;1.83;1.70;;;21.90;99.90;;;;;;5006698;28;20201;-67
2022/10/28 10:13:28;;;;;;;1.60;1.50;;;22.00;99.90;;;;;;5009573;28;20285;-67
2022/10/28 10:15:57;;;;;;;1.88;1.55;;;22.10;99.90;;;;;;5008128;28;20313;-68
2022/10/28 10:18:28;;;;;;;1.70;1.60;;;22.10;99.90;;;;;;5002362;28;20208;-67
2022/10/28 10:20:57;;;;;;;1.58;1.48;;;22.10;99.90;;;;;;5006246;28;20198;-67
2022/10/28 10:23:29;;;;;;;2.50;1.73;;;22.10;99.90;;;;;;5009689;28;20235;-67
2022/10/28 10:26:02;;;;;;;1.77;1.60;;;22.10;99.90;;;;;;5001628;28;20221;-65
2022/10/28 10:28:30;;;;;;;2.50;2.30;;;22.10;99.90;;;;;;5013498;28;20725;-66
2022/10/28 10:30:58;;;;;;;14.77;13.87;;;22.00;99.90;;;;;;5007958;28;20206;-66
2022/10/28 10:33:28;;;;;;;5.00;4.60;;;22.00;99.90;;;;;;5002160;28;20201;-65
2022/10/28 10:35:58;;;;;;;2.50;2.30;;;22.00;99.90;;;;;;5001905;28;20226;-66
2022/10/28 10:38:27;;;;;;;2.27;2.13;;;21.90;99.90;;;;;;5004395;28;20226;-65
2022/10/28 10:40:55;;;;;;;2.17;1.98;;;21.80;99.90;;;;;;5003454;28;20286;-66
2022/10/28 10:43:29;;;;;;;2.27;2.07;;;21.80;99.90;;;;;;5002379;28;20208;-66
2022/10/28 10:46:01;;;;;;;2.03;1.93;;;21.80;99.90;;;;;;5002421;28;20220;-66
2022/10/28 10:48:31;;;;;;;2.20;2.10;;;21.80;99.90;;;;;;5002392;28;20268;-66
2022/10/28 10:50:58;;;;;;;2.00;1.90;;;21.80;99.90;;;;;;5002965;28;20225;-67
2022/10/28 10:53:28;;;;;;;2.03;1.75;;;22.00;99.90;;;;;;5000428;28;20880;-65
2022/10/28 10:55:59;;;;;;;2.05;1.65;;;22.10;99.90;;;;;;5007576;28;20224;-66
2022/10/28 10:58:29;;;;;;;2.50;2.30;;;22.30;99.90;;;;;;5001391;28;20205;-67
2022/10/28 11:00:59;;;;;;;2.50;2.03;;;22.50;99.90;;;;;;5009590;28;20671;-66
2022/10/28 11:03:30;;;;;;;1.83;1.73;;;22.60;99.90;;;;;;5003237;28;20202;-65
2022/10/28 11:05:58;;;;;;;1.80;1.70;;;22.70;99.90;;;;;;4997940;28;20228;-67
2022/10/28 11:08:33;;;;;;;1.90;1.80;;;22.70;99.90;;;;;;4997271;28;20202;-65
2022/10/28 11:11:08;;;;;;;1.70;1.60;;;22.90;99.90;;;;;;4999534;28;20702;-66
2022/10/28 11:13:36;;;;;;;1.55;1.45;;;23.20;99.90;;;;;;4996256;28;20205;-67
2022/10/28 11:16:05;;;;;;;2.20;1.40;;;23.30;99.90;;;;;;5000920;28;20316;-65
2022/10/28 11:18:42;;;;;;;1.75;1.65;;;23.50;99.90;;;;;;5009463;28;20648;-65
2022/10/28 11:21:23;;;;;;;1.70;1.60;;;23.80;99.90;;;;;;5008303;28;20208;-65
2022/10/28 11:24:01;;;;;;;1.95;1.83;;;24.00;99.90;;;;;;5003324;28;20212;-65
2022/10/28 11:26:29;;;;;;;1.97;1.77;;;24.10;99.90;;;;;;5004640;28;20225;-65
2022/10/28 11:29:12;;;;;;;1.50;1.40;;;24.00;99.90;;;;;;5002859;28;20208;-65
2022/10/28 11:31:58;;;;;;;1.83;1.50;;;24.00;99.90;;;;;;5003273;28;20205;-64
2022/10/28 11:34:55;;;;;;;1.95;1.80;;;24.00;99.90;;;;;;4998260;28;20202;-65
2022/10/28 11:37:30;;;;;;;2.22;1.80;;;24.00;99.90;;;;;;5004330;28;20332;-65
2022/10/28 11:40:09;;;;;;;6.72;1.90;;;23.70;99.90;;;;;;5003293;28;20688;-66
2022/10/28 11:42:47;;;;;;;1.77;1.67;;;23.60;99.90;;;;;;5005869;28;20208;-64
2022/10/28 11:45:23;;;;;;;1.67;1.57;;;23.40;99.90;;;;;;5011935;28;21088;-65
2022/10/28 11:48:06;;;;;;;2.73;1.50;;;23.30;99.90;;;;;;5013935;28;20225;-66
2022/10/28 11:50:48;;;;;;;2.97;1.65;;;23.20;99.90;;;;;;5010797;28;20227;-67
2022/10/28 11:53:52;;;;;;;2.15;1.80;;;23.00;99.90;;;;;;5015858;28;20734;-66
2022/10/28 11:56:30;;;;;;;1.40;1.30;;;22.80;99.90;;;;;;5017122;28;20299;-66
2022/10/28 11:59:13;;;;;;;2.07;1.50;;;22.70;99.90;;;;;;5015382;28;20683;-65
2022/10/28 12:01:50;;;;;;;2.43;1.53;;;22.80;99.90;;;;;;5014351;28;20287;-66
2022/10/28 12:04:34;;;;;;;3.05;1.55;;;22.90;99.90;;;;;;5018245;28;20207;-67
2022/10/28 12:07:39;;;;;;;1.67;1.50;;;23.10;99.90;;;;;;5017849;28;20310;-66
2022/10/28 12:10:24;;;;;;;1.50;1.40;;;23.20;99.90;;;;;;4933715;29;20838;-66
2022/10/28 12:12:59;;;;;;;1.38;1.25;;;23.20;99.90;;;;;;4998912;28;20205;-65
2022/10/28 12:15:39;;;;;;;1.57;1.47;;;23.00;99.90;;;;;;5007127;28;20292;-65
2022/10/28 12:18:11;;;;;;;1.50;1.40;;;23.00;99.90;;;;;;5012238;28;20197;-65
2022/10/28 12:20:42;;;;;;;1.50;1.40;;;23.20;99.90;;;;;;5006786;28;20209;-66
2022/10/28 12:23:13;;;;;;;2.28;1.38;;;23.30;99.90;;;;;;5013327;28;20201;-65
2022/10/28 12:25:43;;;;;;;1.53;1.30;;;23.40;99.90;;;;;;5011362;28;20210;-65
2022/10/28 12:28:19;;;;;;;2.60;1.48;;;23.50;99.90;;;;;;5014594;28;20194;-66
2022/10/28 12:30:48;;;;;;;1.50;1.40;;;23.60;99.90;;;;;;5010678;28;20231;-65
2022/10/28 12:33:20;;;;;;;1.80;1.40;;;23.60;99.90;;;;;;5014223;28;20669;-65
2022/10/28 12:35:51;;;;;;;1.95;1.67;;;23.60;99.90;;;;;;5017375;28;20198;-66
2022/10/28 12:38:24;;;;;;;1.60;1.50;;;23.60;99.90;;;;;;5018447;28;20289;-66
2022/10/28 12:40:58;;;;;;;1.83;1.50;;;23.50;99.90;;;;;;5019793;28;20206;-66
2022/10/28 12:43:32;;;;;;;1.63;1.50;;;23.60;99.90;;;;;;5018560;28;20207;-65
2022/10/28 12:46:00;;;;;;;1.70;1.60;;;23.70;99.90;;;;;;5015330;28;20235;-65
2022/10/28 12:48:33;;;;;;;2.53;1.88;;;23.70;99.90;;;;;;5012786;28;20296;-66
2022/10/28 12:51:05;;;;;;;1.88;1.63;;;23.90;99.90;;;;;;5017696;28;20707;-66
2022/10/28 12:53:36;;;;;;;1.52;1.35;;;23.90;99.90;;;;;;5018134;28;20201;-66
2022/10/28 12:56:08;;;;;;;1.60;1.50;;;24.00;99.90;;;;;;5017336;28;20235;-66
2022/10/28 12:58:44;;;;;;;1.50;1.40;;;24.20;99.90;;;;;;5018683;28;20205;-65
2022/10/28 13:01:15;;;;;;;1.73;1.45;;;24.30;99.90;;;;;;5021480;28;20597;-67
2022/10/28 13:03:41;;;;;;;1.90;1.60;;;24.40;99.90;;;;;;5029993;28;20198;-66
2022/10/28 13:06:31;;;;;;;2.00;1.80;;;24.50;99.90;;;;;;5033371;28;20696;-66
2022/10/28 13:09:32;;;;;;;1.95;1.75;;;24.60;99.90;;;;;;5027794;28;20288;-64